Aviation Digital Data Service (ADDS)

Output produced by METARs form (0753 UTC 03 July 2015)
found at http://www.aviationweather.gov/adds/metars/
 
KCRQ 030746Z AUTO 28003KT 10SM BKN010 19/17 A2995 RMK AO2 T01940172
KCRQ 030710Z AUTO 28003KT 9SM SCT009 19/17 A2996 RMK AO2 T01940172
KCRQ 030653Z AUTO 26003KT 10SM BKN009 20/17 A2996 RMK AO2 SLP142 T02000172
KCRQ 030553Z AUTO 00000KT 8SM BKN007 20/18 A2995 RMK AO2 SLP139 T02000178 10222 20200 51010
KCRQ 030544Z AUTO 29003KT 8SM BKN007 20/18 A2995 RMK AO2 T02000178
KCRQ 030453Z 29003KT 8SM FEW008 20/18 A2995 RMK AO2 SLP137 T02000178
KCRQ 030431Z 26003KT 9SM FEW008 20/18 A2995 RMK AO2 T02000178
KCRQ 030520Z 0306/0406 VRB03KT P6SM SCT008 
     FM030700 VRB03KT 6SM BR BKN006 
     FM031200 VRB03KT 3SM BR OVC004 
     FM031600 VRB05KT 6SM HZ BKN007 
     FM031800 26008KT P6SM SCT009 
     FM040300 VRB04KT P6SM BKN007